createdAt,value
2023-03-24T00:02:05.125Z,87.80
2023-03-24T00:04:32.807Z,87.90
2023-03-24T00:07:01.652Z,87.90
2023-03-24T00:09:30.093Z,88.00
2023-03-24T00:11:58.739Z,87.90
2023-03-24T00:14:25.764Z,88.10
2023-03-24T00:16:54.692Z,88.00
2023-03-24T00:19:22.631Z,88.00
2023-03-24T00:21:49.568Z,88.20
2023-03-24T00:24:16.865Z,88.20
2023-03-24T00:26:43.752Z,88.30
2023-03-24T00:29:12.664Z,88.30
2023-03-24T00:31:42.657Z,88.50
2023-03-24T00:34:10.918Z,88.50
2023-03-24T00:36:37.782Z,88.60
2023-03-24T00:39:06.321Z,88.60
2023-03-24T00:41:36.231Z,88.60
2023-03-24T00:44:05.928Z,88.70
2023-03-24T00:46:35.607Z,88.60
2023-03-24T00:49:05.894Z,88.60
2023-03-24T00:51:35.699Z,88.60
2023-03-24T00:54:03.644Z,88.60
2023-03-24T00:56:32.411Z,88.60
2023-03-24T00:59:02.041Z,88.50
2023-03-24T01:01:33.461Z,88.60
2023-03-24T01:04:02.382Z,88.60
2023-03-24T01:06:30.420Z,88.50
2023-03-24T01:08:57.296Z,88.50
2023-03-24T01:11:25.984Z,88.50
2023-03-24T01:14:07.873Z,88.50
2023-03-24T01:16:34.895Z,88.50
2023-03-24T01:19:03.806Z,88.40
2023-03-24T01:21:39.421Z,88.40
2023-03-24T01:24:08.057Z,88.40
2023-03-24T01:26:39.079Z,88.40
2023-03-24T01:29:06.449Z,88.40
2023-03-24T01:31:33.648Z,88.30
2023-03-24T01:34:00.701Z,88.40
2023-03-24T01:36:28.956Z,88.30
2023-03-24T01:38:58.384Z,88.30
2023-03-24T01:41:33.200Z,88.30
2023-03-24T01:44:00.445Z,88.30
2023-03-24T01:46:29.690Z,88.30
2023-03-24T01:49:00.650Z,88.40
2023-03-24T01:51:35.226Z,88.40
2023-03-24T01:54:05.954Z,88.30
2023-03-24T01:56:36.419Z,88.30
2023-03-24T01:59:08.480Z,88.30
2023-03-24T02:01:35.724Z,88.40
2023-03-24T02:04:05.918Z,88.30
2023-03-24T02:06:41.242Z,88.30
2023-03-24T02:09:10.480Z,88.30
2023-03-24T02:11:39.201Z,88.30
2023-03-24T02:14:07.972Z,88.20
2023-03-24T02:17:07.525Z,88.30
2023-03-24T02:20:11.271Z,88.30
2023-03-24T02:23:05.424Z,88.30
2023-03-24T02:26:03.333Z,88.30
2023-03-24T02:28:45.564Z,88.40
2023-03-24T02:31:51.826Z,88.30
2023-03-24T02:34:41.048Z,88.30
2023-03-24T02:37:55.063Z,88.30
2023-03-24T02:40:29.752Z,88.20
2023-03-24T02:43:05.049Z,88.10
2023-03-24T02:45:36.823Z,88.00
2023-03-24T02:48:23.107Z,87.90
2023-03-24T02:50:54.397Z,87.80
2023-03-24T02:53:28.541Z,87.70
2023-03-24T02:56:07.669Z,87.70
2023-03-24T02:58:40.717Z,87.40
2023-03-24T03:01:14.407Z,87.30
2023-03-24T03:03:49.133Z,87.00
2023-03-24T03:06:23.906Z,87.10
2023-03-24T03:08:51.817Z,87.00
2023-03-24T03:11:25.104Z,86.90
2023-03-24T03:13:56.608Z,86.60
2023-03-24T03:16:34.471Z,86.70
2023-03-24T03:19:06.064Z,86.70
2023-03-24T03:21:39.234Z,86.70
2023-03-24T03:24:09.376Z,86.60
2023-03-24T03:26:44.017Z,86.50
2023-03-24T03:29:17.194Z,86.50
2023-03-24T03:31:52.982Z,86.40
2023-03-24T03:34:31.351Z,86.40
2023-03-24T03:37:03.480Z,86.40
2023-03-24T03:39:33.428Z,86.50
2023-03-24T03:42:03.189Z,86.60
2023-03-24T03:44:34.521Z,86.60
2023-03-24T03:47:01.672Z,86.50
2023-03-24T03:49:28.582Z,86.50
2023-03-24T03:52:03.576Z,86.50
2023-03-24T03:54:32.321Z,86.50
2023-03-24T03:57:01.606Z,86.60
2023-03-24T03:59:30.438Z,86.60
2023-03-24T04:01:58.290Z,86.70
2023-03-24T04:04:40.210Z,86.70
2023-03-24T04:07:15.237Z,86.70
2023-03-24T04:09:54.885Z,86.70
2023-03-24T04:12:42.230Z,86.70
2023-03-24T04:15:29.025Z,86.70
2023-03-24T04:18:21.662Z,86.80
2023-03-24T04:20:53.670Z,86.70
2023-03-24T04:23:28.166Z,86.70
2023-03-24T04:26:04.071Z,86.70
2023-03-24T04:28:40.062Z,86.70
2023-03-24T04:31:15.150Z,86.60
2023-03-24T04:33:48.671Z,86.50
2023-03-24T04:36:22.466Z,86.50
2023-03-24T04:38:59.358Z,86.40
2023-03-24T04:41:28.975Z,86.40
2023-03-24T04:43:58.813Z,86.30
2023-03-24T04:46:25.945Z,86.30
2023-03-24T04:48:53.032Z,86.20
2023-03-24T04:51:20.898Z,86.20
2023-03-24T04:53:48.100Z,86.10
2023-03-24T04:56:28.522Z,86.10
2023-03-24T04:58:58.714Z,86.10
2023-03-24T05:01:29.639Z,86.10
2023-03-24T05:03:57.908Z,86.00
2023-03-24T05:06:25.432Z,86.00
2023-03-24T05:08:52.999Z,86.10
2023-03-24T05:11:20.484Z,86.10
2023-03-24T05:13:47.737Z,86.10
2023-03-24T05:16:16.395Z,86.10
2023-03-24T05:18:43.345Z,86.20
2023-03-24T05:21:10.559Z,86.20
2023-03-24T05:23:37.426Z,86.30
2023-03-24T05:26:05.036Z,86.30
2023-03-24T05:28:32.157Z,86.30
2023-03-24T05:31:00.302Z,86.30
2023-03-24T05:33:28.687Z,86.20
2023-03-24T05:35:56.112Z,86.20
2023-03-24T05:38:22.994Z,86.20
2023-03-24T05:40:50.233Z,86.20
2023-03-24T05:43:17.203Z,86.20
2023-03-24T05:45:47.353Z,86.20
2023-03-24T05:48:14.479Z,86.30
2023-03-24T05:50:42.949Z,86.30
2023-03-24T05:53:09.778Z,86.30
2023-03-24T05:55:37.283Z,86.20
2023-03-24T05:58:04.900Z,86.20
2023-03-24T06:00:33.433Z,86.20
2023-03-24T06:03:00.473Z,86.20
2023-03-24T06:05:27.517Z,86.20
2023-03-24T06:07:58.909Z,86.20
2023-03-24T06:10:29.338Z,86.20
2023-03-24T06:12:57.094Z,86.10
2023-03-24T06:15:27.700Z,86.10
2023-03-24T06:17:55.355Z,86.00
2023-03-24T06:20:22.310Z,86.00
2023-03-24T06:22:49.674Z,86.00
2023-03-24T06:25:21.992Z,85.90
2023-03-24T06:27:48.910Z,85.90
2023-03-24T06:30:18.912Z,85.80
2023-03-24T06:32:46.695Z,85.80
2023-03-24T06:35:32.956Z,85.80
2023-03-24T06:37:59.933Z,85.70
2023-03-24T06:40:28.638Z,85.70
2023-03-24T06:42:55.872Z,85.60
2023-03-24T06:45:23.222Z,85.60
2023-03-24T06:47:58.764Z,85.60
2023-03-24T06:50:29.946Z,85.60
2023-03-24T06:52:56.837Z,85.50
2023-03-24T06:55:23.851Z,85.40
2023-03-24T06:57:52.103Z,85.30
2023-03-24T07:00:19.932Z,85.30
2023-03-24T07:02:47.569Z,85.30
2023-03-24T07:05:14.681Z,85.20
2023-03-24T07:10:14.005Z,85.10
2023-03-24T07:12:41.066Z,85.20
2023-03-24T07:15:12.241Z,85.10
2023-03-24T07:17:40.969Z,85.00
2023-03-24T07:20:08.927Z,85.00
2023-03-24T07:22:38.777Z,85.00
2023-03-24T07:25:06.783Z,84.80
2023-03-24T07:27:34.236Z,84.80
2023-03-24T07:30:02.084Z,84.50
2023-03-24T07:32:34.782Z,84.50
2023-03-24T07:35:02.564Z,84.50
2023-03-24T07:37:29.908Z,84.30
2023-03-24T07:39:56.825Z,84.30
2023-03-24T07:42:23.926Z,84.30
2023-03-24T07:44:51.450Z,84.00
2023-03-24T07:47:18.426Z,83.70
2023-03-24T07:49:46.810Z,83.60
2023-03-24T07:52:14.300Z,83.70
2023-03-24T07:54:41.388Z,83.60
2023-03-24T07:57:10.967Z,83.70
2023-03-24T07:59:38.759Z,83.80
2023-03-24T08:02:08.678Z,83.40
2023-03-24T08:04:35.544Z,83.40
2023-03-24T08:07:05.253Z,83.40
2023-03-24T08:09:32.563Z,83.30
2023-03-24T08:12:04.355Z,83.30
2023-03-24T08:14:40.587Z,83.10
2023-03-24T08:17:10.224Z,82.80
2023-03-24T08:19:45.366Z,82.70
2023-03-24T08:22:21.023Z,82.70
2023-03-24T08:24:47.938Z,82.40
2023-03-24T08:27:16.980Z,82.60
2023-03-24T08:29:44.383Z,82.50
2023-03-24T08:32:11.415Z,82.20
2023-03-24T08:34:38.502Z,82.20
2023-03-24T08:37:05.532Z,81.60
2023-03-24T08:39:36.001Z,81.50
2023-03-24T08:42:03.757Z,81.40
2023-03-24T08:44:32.897Z,81.40
2023-03-24T08:47:01.049Z,81.20
2023-03-24T08:49:28.579Z,81.00
2023-03-24T08:51:55.754Z,81.00
2023-03-24T08:54:24.727Z,81.00
2023-03-24T08:56:54.838Z,80.60
2023-03-24T08:59:21.745Z,80.50
2023-03-24T09:01:48.979Z,80.20
2023-03-24T09:04:16.155Z,80.00
2023-03-24T09:06:43.537Z,80.40
2023-03-24T09:09:11.143Z,80.00
2023-03-24T09:11:38.757Z,79.20
2023-03-24T09:14:07.759Z,78.70
2023-03-24T09:16:34.822Z,78.50
2023-03-24T09:19:01.852Z,78.70
2023-03-24T09:21:28.850Z,77.70
2023-03-24T09:23:55.849Z,77.20
2023-03-24T09:26:23.118Z,77.20
2023-03-24T09:28:49.983Z,77.20
2023-03-24T09:31:20.404Z,76.00
2023-03-24T09:33:47.639Z,75.00
2023-03-24T09:36:14.510Z,74.70
2023-03-24T09:38:41.427Z,74.70
2023-03-24T09:41:16.945Z,74.00
2023-03-24T09:43:46.694Z,72.70
2023-03-24T09:46:19.068Z,72.30
2023-03-24T09:48:51.879Z,72.20
2023-03-24T09:51:22.742Z,71.60
2023-03-24T09:53:58.008Z,72.20
2023-03-24T09:56:29.607Z,70.00
2023-03-24T09:59:04.369Z,70.60
2023-03-24T10:01:33.442Z,70.80
2023-03-24T10:04:02.680Z,69.70
2023-03-24T10:06:38.562Z,69.80
2023-03-24T10:09:17.299Z,70.30
2023-03-24T10:11:51.843Z,70.50
2023-03-24T10:14:33.864Z,71.20
2023-03-24T10:17:05.591Z,71.40
2023-03-24T10:19:43.529Z,71.60
2023-03-24T10:22:16.241Z,71.30
2023-03-24T10:24:49.953Z,71.40
2023-03-24T10:27:26.879Z,71.50
2023-03-24T10:29:58.945Z,72.60
2023-03-24T10:32:29.864Z,71.80
2023-03-24T10:35:01.923Z,71.90
2023-03-24T10:37:30.504Z,72.30
2023-03-24T10:39:57.619Z,72.20
2023-03-24T10:42:26.526Z,71.90
2023-03-24T10:44:53.913Z,72.20
2023-03-24T10:47:26.210Z,72.30
2023-03-24T10:49:55.372Z,72.70
2023-03-24T10:52:27.329Z,73.10
2023-03-24T10:54:56.360Z,72.50
2023-03-24T10:57:24.846Z,71.60
2023-03-24T10:59:55.999Z,70.30
2023-03-24T11:02:29.634Z,71.30
2023-03-24T11:04:58.789Z,71.10
2023-03-24T11:07:41.299Z,69.90
2023-03-24T11:10:17.809Z,68.30
2023-03-24T11:13:02.352Z,69.10
2023-03-24T11:15:34.028Z,68.50
2023-03-24T11:18:10.417Z,69.50
2023-03-24T11:20:40.046Z,68.90
2023-03-24T11:23:19.293Z,69.50
2023-03-24T11:25:50.727Z,69.40
2023-03-24T11:28:21.105Z,69.80
2023-03-24T11:30:50.417Z,69.80
2023-03-24T11:33:35.979Z,70.10
2023-03-24T11:36:28.958Z,69.80
2023-03-24T11:39:12.345Z,70.30
2023-03-24T11:41:42.714Z,70.60
2023-03-24T11:44:30.286Z,70.40
2023-03-24T11:46:59.698Z,70.90
2023-03-24T11:49:30.738Z,71.20
2023-03-24T11:51:58.088Z,71.40
2023-03-24T11:54:32.470Z,71.20
2023-03-24T11:57:04.522Z,71.20
2023-03-24T11:59:40.598Z,71.10
2023-03-24T12:02:19.415Z,71.30
2023-03-24T12:04:59.702Z,71.00
2023-03-24T12:07:56.687Z,71.90
2023-03-24T12:10:41.165Z,71.60
2023-03-24T12:13:26.015Z,70.80
2023-03-24T12:16:11.843Z,70.40
2023-03-24T12:19:01.434Z,70.00
2023-03-24T12:21:44.424Z,69.10
2023-03-24T12:24:24.504Z,69.30
2023-03-24T12:26:57.949Z,69.80
2023-03-24T12:29:48.431Z,69.30
2023-03-24T12:32:41.470Z,69.70
2023-03-24T12:35:39.550Z,70.30
2023-03-24T12:38:21.127Z,70.80
2023-03-24T12:41:17.182Z,70.80
2023-03-24T12:43:51.772Z,71.30
2023-03-24T12:46:46.792Z,71.80
2023-03-24T12:49:45.294Z,72.00
2023-03-24T12:52:22.867Z,72.30
2023-03-24T12:54:55.095Z,72.30
2023-03-24T12:57:25.629Z,71.70
2023-03-24T13:00:01.449Z,71.60
2023-03-24T13:02:34.364Z,71.40
2023-03-24T13:05:05.447Z,71.40
2023-03-24T13:07:37.918Z,71.50
2023-03-24T13:10:15.252Z,71.40
2023-03-24T13:12:47.615Z,71.40
2023-03-24T13:15:21.110Z,71.40
2023-03-24T13:17:53.259Z,71.60
2023-03-24T13:20:26.094Z,71.50
2023-03-24T13:22:54.419Z,70.90
2023-03-24T13:25:31.361Z,70.50
2023-03-24T13:28:05.857Z,70.70
2023-03-24T13:30:36.498Z,70.50
2023-03-24T13:33:10.910Z,70.70
2023-03-24T13:36:00.478Z,70.50
2023-03-24T13:38:35.926Z,70.40
2023-03-24T13:41:05.982Z,70.40
2023-03-24T13:43:34.150Z,70.40
2023-03-24T13:46:03.996Z,70.40
2023-03-24T13:48:36.520Z,70.70
2023-03-24T13:51:07.109Z,70.90
2023-03-24T13:53:38.425Z,71.20
2023-03-24T13:56:08.294Z,71.40
2023-03-24T13:59:07.531Z,71.80
2023-03-24T14:01:38.748Z,72.00
2023-03-24T14:04:25.263Z,72.40
2023-03-24T14:06:53.966Z,73.50
2023-03-24T14:09:22.758Z,73.80
2023-03-24T14:12:09.417Z,74.00
2023-03-24T14:15:01.603Z,74.30
2023-03-24T14:17:29.868Z,74.00
2023-03-24T14:20:23.480Z,73.70
2023-03-24T14:22:51.913Z,73.50
2023-03-24T14:25:24.938Z,73.50
2023-03-24T14:27:52.800Z,73.40
2023-03-24T14:30:22.027Z,72.80
2023-03-24T14:32:52.290Z,72.70
2023-03-24T14:35:24.800Z,72.50
2023-03-24T14:37:56.037Z,72.20
2023-03-24T14:40:29.734Z,72.10
2023-03-24T14:43:21.138Z,72.00
2023-03-24T14:46:02.108Z,72.30
2023-03-24T14:48:38.179Z,72.20
2023-03-24T14:51:29.540Z,72.30
2023-03-24T14:53:58.631Z,72.30
2023-03-24T14:56:36.704Z,72.50
2023-03-24T14:59:10.021Z,71.90
2023-03-24T15:01:40.753Z,71.90
2023-03-24T15:04:11.234Z,71.50
2023-03-24T15:06:44.935Z,71.30
2023-03-24T15:09:18.487Z,70.50
2023-03-24T15:11:48.183Z,70.50
2023-03-24T15:14:23.430Z,70.80
2023-03-24T15:16:56.693Z,70.80
2023-03-24T15:19:26.880Z,71.30
2023-03-24T15:21:59.988Z,71.60
2023-03-24T15:24:33.781Z,71.40
2023-03-24T15:27:26.436Z,71.60
2023-03-24T15:29:57.920Z,71.40
2023-03-24T15:32:27.485Z,71.70
2023-03-24T15:35:00.397Z,71.40
2023-03-24T15:37:33.882Z,70.90
2023-03-24T15:40:13.003Z,70.80
2023-03-24T15:42:44.750Z,70.70
2023-03-24T15:45:22.089Z,70.80
2023-03-24T15:47:53.155Z,70.80
2023-03-24T15:50:33.431Z,70.80
2023-03-24T15:53:02.484Z,70.60
2023-03-24T15:55:34.950Z,70.50
2023-03-24T15:58:19.390Z,70.20
2023-03-24T16:00:46.420Z,70.20
2023-03-24T16:03:17.699Z,70.50
2023-03-24T16:05:51.454Z,70.50
2023-03-24T16:08:27.277Z,70.70
2023-03-24T16:11:00.342Z,70.70
2023-03-24T16:13:27.735Z,70.70
2023-03-24T16:15:57.731Z,70.90
2023-03-24T16:18:29.015Z,70.90
2023-03-24T16:20:57.600Z,71.10
2023-03-24T16:23:26.296Z,71.10
2023-03-24T16:25:55.789Z,71.40
2023-03-24T16:28:27.633Z,71.80
2023-03-24T16:30:59.111Z,72.40
2023-03-24T16:33:35.626Z,73.10
2023-03-24T16:36:04.652Z,73.50
2023-03-24T16:38:35.898Z,74.30
2023-03-24T16:41:06.199Z,74.50
2023-03-24T16:43:37.582Z,74.50
2023-03-24T16:46:05.684Z,74.70
2023-03-24T16:48:32.840Z,74.50
2023-03-24T16:50:59.668Z,74.70
2023-03-24T16:53:27.841Z,74.90
2023-03-24T16:55:54.732Z,74.70
2023-03-24T16:58:21.991Z,74.80
2023-03-24T17:00:49.244Z,74.90
2023-03-24T17:03:17.939Z,74.90
2023-03-24T17:05:48.391Z,75.20
2023-03-24T17:08:16.691Z,75.30
2023-03-24T17:10:47.869Z,75.50
2023-03-24T17:13:18.364Z,75.60
2023-03-24T17:15:45.408Z,75.90
2023-03-24T17:18:12.844Z,76.00
2023-03-24T17:20:41.100Z,75.90
2023-03-24T17:23:10.307Z,75.80
2023-03-24T17:25:37.270Z,75.90
2023-03-24T17:28:11.742Z,76.00
2023-03-24T17:30:38.612Z,75.90
2023-03-24T17:33:05.690Z,76.00
2023-03-24T17:35:32.635Z,76.30
2023-03-24T17:38:02.480Z,76.30
2023-03-24T17:40:29.653Z,76.40
2023-03-24T17:42:56.711Z,75.80
2023-03-24T17:45:24.894Z,76.40
2023-03-24T17:47:51.775Z,76.60
2023-03-24T17:50:18.758Z,76.50
2023-03-24T17:52:47.108Z,76.20
2023-03-24T17:55:16.066Z,76.50
2023-03-24T17:57:43.660Z,76.60
2023-03-24T18:00:14.549Z,76.50
2023-03-24T18:02:44.085Z,76.70
2023-03-24T18:05:11.879Z,76.60
2023-03-24T18:07:39.619Z,76.50
2023-03-24T18:10:09.806Z,76.80
2023-03-24T18:12:40.041Z,76.80
2023-03-24T18:15:08.493Z,77.00
2023-03-24T18:17:36.312Z,76.90
2023-03-24T18:20:11.148Z,77.00
2023-03-24T18:22:40.877Z,77.20
2023-03-24T18:25:09.748Z,77.10
2023-03-24T18:27:37.804Z,77.00
2023-03-24T18:30:06.790Z,77.00
2023-03-24T18:32:35.839Z,77.00
2023-03-24T18:35:05.635Z,77.10
2023-03-24T18:37:32.756Z,77.30
2023-03-24T18:40:00.350Z,77.20
2023-03-24T18:42:27.984Z,77.30
2023-03-24T18:44:55.330Z,77.30
2023-03-24T18:47:22.747Z,77.40
2023-03-24T18:49:58.496Z,77.40
2023-03-24T18:52:27.207Z,77.20
2023-03-24T18:54:54.269Z,77.50
2023-03-24T18:57:21.559Z,77.50
2023-03-24T18:59:48.640Z,77.50
2023-03-24T19:02:15.862Z,77.70
2023-03-24T19:04:43.700Z,77.80
2023-03-24T19:07:14.669Z,77.50
2023-03-24T19:09:43.326Z,77.70
2023-03-24T19:12:10.511Z,77.90
2023-03-24T19:14:37.880Z,77.90
2023-03-24T19:17:04.844Z,78.10
2023-03-24T19:19:31.865Z,77.80
2023-03-24T19:21:59.157Z,77.90
2023-03-24T19:24:26.444Z,77.90
2023-03-24T19:26:54.971Z,77.80
2023-03-24T19:29:22.346Z,78.00
2023-03-24T19:31:52.081Z,77.80
2023-03-24T19:34:20.828Z,77.70
2023-03-24T19:36:49.608Z,77.60
2023-03-24T19:39:17.387Z,77.40
2023-03-24T19:41:44.505Z,77.30
2023-03-24T19:44:13.348Z,77.20
2023-03-24T19:46:40.582Z,77.00
2023-03-24T19:49:07.652Z,76.90
2023-03-24T19:51:34.534Z,76.70
2023-03-24T19:54:01.440Z,76.70
2023-03-24T19:56:29.457Z,76.70
2023-03-24T19:58:56.379Z,76.60
2023-03-24T20:01:24.881Z,76.60
2023-03-24T20:03:51.906Z,76.60
2023-03-24T20:06:19.892Z,76.60
2023-03-24T20:08:47.302Z,76.50
2023-03-24T20:11:14.413Z,76.50
2023-03-24T20:13:41.558Z,76.60
2023-03-24T20:16:08.536Z,76.50
2023-03-24T20:18:38.948Z,76.50
2023-03-24T20:21:06.972Z,76.50
2023-03-24T20:23:33.877Z,76.50
2023-03-24T20:26:01.709Z,76.50
2023-03-24T20:28:28.798Z,76.40
2023-03-24T20:30:59.374Z,76.40
2023-03-24T20:33:28.928Z,76.40
2023-03-24T20:35:58.408Z,76.50
2023-03-24T20:38:26.207Z,76.40
2023-03-24T20:41:00.843Z,76.50
2023-03-24T20:43:28.477Z,76.50
2023-03-24T20:45:57.451Z,76.50
2023-03-24T20:48:26.099Z,76.50
2023-03-24T20:50:53.357Z,76.50
2023-03-24T20:53:21.645Z,76.50
2023-03-24T20:55:57.608Z,76.50
2023-03-24T20:58:24.462Z,76.40
2023-03-24T21:00:52.014Z,76.50
2023-03-24T21:03:19.733Z,76.40
2023-03-24T21:05:46.677Z,76.40
2023-03-24T21:08:14.132Z,76.40
2023-03-24T21:10:42.560Z,76.40
2023-03-24T21:13:09.993Z,76.40
2023-03-24T21:15:42.696Z,76.40
2023-03-24T21:18:09.858Z,76.40
2023-03-24T21:20:37.346Z,76.40
2023-03-24T21:23:04.653Z,76.40
2023-03-24T21:25:32.775Z,76.40
2023-03-24T21:28:01.445Z,76.40
2023-03-24T21:30:31.322Z,76.40
2023-03-24T21:32:59.758Z,76.40
2023-03-24T21:35:27.227Z,76.40
2023-03-24T21:37:54.401Z,76.40
2023-03-24T21:40:23.729Z,76.50
2023-03-24T21:42:50.829Z,76.50
2023-03-24T21:45:21.037Z,76.50
2023-03-24T21:47:49.524Z,76.50
2023-03-24T21:50:23.694Z,76.50
2023-03-24T21:52:52.340Z,76.50
2023-03-24T21:55:20.850Z,76.50
2023-03-24T21:57:50.026Z,76.50
2023-03-24T22:00:21.396Z,76.40
2023-03-24T22:02:50.680Z,76.40
2023-03-24T22:05:19.681Z,76.40
2023-03-24T22:07:47.022Z,76.50
2023-03-24T22:10:19.007Z,76.50
2023-03-24T22:12:45.839Z,76.50
2023-03-24T22:15:13.016Z,76.60
2023-03-24T22:17:42.314Z,76.60
2023-03-24T22:20:11.197Z,76.60
2023-03-24T22:22:39.242Z,76.70
2023-03-24T22:25:12.364Z,76.70
2023-03-24T22:27:39.707Z,76.70
2023-03-24T22:30:08.374Z,76.70
2023-03-24T22:32:37.405Z,76.60
2023-03-24T22:35:07.316Z,76.50
2023-03-24T22:37:34.599Z,76.50
2023-03-24T22:40:01.935Z,76.40
2023-03-24T22:42:29.249Z,76.40
2023-03-24T22:44:56.433Z,76.40
2023-03-24T22:47:23.982Z,76.30
2023-03-24T22:49:50.955Z,76.40
2023-03-24T22:52:19.196Z,76.40
2023-03-24T22:54:46.271Z,76.40
2023-03-24T22:57:13.387Z,76.50
2023-03-24T22:59:40.469Z,76.50
2023-03-24T23:02:10.388Z,76.40
2023-03-24T23:04:37.542Z,76.50
2023-03-24T23:07:06.482Z,76.50
2023-03-24T23:09:34.811Z,76.60
2023-03-24T23:12:03.852Z,76.70
2023-03-24T23:14:31.314Z,76.80
2023-03-24T23:16:58.635Z,76.80
2023-03-24T23:19:28.577Z,76.80
2023-03-24T23:21:55.395Z,76.80
2023-03-24T23:24:22.277Z,76.90
2023-03-24T23:26:50.896Z,76.90
2023-03-24T23:29:17.883Z,76.90
2023-03-24T23:31:44.842Z,76.90
2023-03-24T23:34:12.106Z,77.00
2023-03-24T23:36:45.176Z,77.00
2023-03-24T23:39:12.278Z,77.00
2023-03-24T23:41:39.367Z,77.00
2023-03-24T23:44:08.673Z,77.10
2023-03-24T23:46:36.069Z,77.10
2023-03-24T23:49:02.927Z,77.10
2023-03-24T23:51:29.859Z,77.20
2023-03-24T23:53:56.797Z,77.20
2023-03-24T23:56:23.687Z,77.20
2023-03-24T23:58:50.465Z,77.30
